Terminal Aerodrome Forecast
Issued by NWS Tallahassee, FL

Home | Current Version | Previous Version | Text Only | Print | Product List | Glossary On
Versions: 1 2 3 4 5 6 7 8 9 10 11 12 13 14
000
FTUS42 KTAE 181721
TAFTLH
TAF
KTLH 181721Z 1818/1918 34007KT P6SM SCT050
      TEMPO 1821/1901 3SM -TSRA BKN025CB BKN100
     FM190100 00000KT P6SM BKN200
     FM191400 35005KT P6SM FEW030=

USA.gov is the U.S. government's official web portal to all federal, state and local government web resources and services.